sensor_id;sensor_type;location;lat;lon;timestamp;pressure;altitude;pressure_sealevel;temperature;humidity
39435;BME280;66825;51.880;-0.518;2023-05-07T00:00:09;100408.25;;;18.00;47.01
39435;BME280;66825;51.880;-0.518;2023-05-07T00:02:36;100412.59;;;18.01;46.42
39435;BME280;66825;51.880;-0.518;2023-05-07T00:05:03;100410.69;;;18.02;46.52
39435;BME280;66825;51.880;-0.518;2023-05-07T00:07:28;100409.88;;;18.01;46.60
39435;BME280;66825;51.880;-0.518;2023-05-07T00:09:54;100415.63;;;18.00;46.43
39435;BME280;66825;51.880;-0.518;2023-05-07T00:12:20;100414.50;;;18.01;46.80
39435;BME280;66825;51.880;-0.518;2023-05-07T00:14:46;100410.69;;;18.02;46.53
39435;BME280;66825;51.880;-0.518;2023-05-07T00:17:11;100417.22;;;18.01;46.76
39435;BME280;66825;51.880;-0.518;2023-05-07T00:19:36;100382.50;;;17.78;46.76
39435;BME280;66825;51.880;-0.518;2023-05-07T00:22:02;100421.91;;;18.00;46.74
39435;BME280;66825;51.880;-0.518;2023-05-07T00:24:28;100418.13;;;17.96;46.72
39435;BME280;66825;51.880;-0.518;2023-05-07T00:26:53;100423.78;;;18.00;46.61
39435;BME280;66825;51.880;-0.518;2023-05-07T00:29:18;100418.34;;;18.00;46.64
39435;BME280;66825;51.880;-0.518;2023-05-07T00:31:44;100416.44;;;18.00;46.49
39435;BME280;66825;51.880;-0.518;2023-05-07T00:34:09;100415.63;;;18.00;46.59
39435;BME280;66825;51.880;-0.518;2023-05-07T00:36:35;100408.38;;;17.95;46.54
39435;BME280;66825;51.880;-0.518;2023-05-07T00:39:01;100415.94;;;17.98;46.74
39435;BME280;66825;51.880;-0.518;2023-05-07T00:41:29;100418.34;;;18.00;46.26
39435;BME280;66825;51.880;-0.518;2023-05-07T00:43:55;100369.06;;;17.68;46.55
39435;BME280;66825;51.880;-0.518;2023-05-07T00:46:22;100429.56;;;17.98;46.70
39435;BME280;66825;51.880;-0.518;2023-05-07T00:48:48;100410.94;;;17.86;46.55
39435;BME280;66825;51.880;-0.518;2023-05-07T00:51:15;100417.84;;;17.98;46.76
39435;BME280;66825;51.880;-0.518;2023-05-07T00:53:40;100372.09;;;17.67;46.48
39435;BME280;66825;51.880;-0.518;2023-05-07T00:56:06;100430.66;;;17.97;46.54
39435;BME280;66825;51.880;-0.518;2023-05-07T00:58:33;100440.47;;;17.98;46.81
39435;BME280;66825;51.880;-0.518;2023-05-07T01:00:59;100429.56;;;17.98;46.58
39435;BME280;66825;51.880;-0.518;2023-05-07T01:03:24;100423.31;;;17.98;46.51
39435;BME280;66825;51.880;-0.518;2023-05-07T01:05:52;100423.59;;;17.96;46.57
39435;BME280;66825;51.880;-0.518;2023-05-07T01:08:19;100423.06;;;17.94;46.74
39435;BME280;66825;51.880;-0.518;2023-05-07T01:10:46;100427.94;;;17.97;46.62
39435;BME280;66825;51.880;-0.518;2023-05-07T01:13:12;100412.56;;;17.87;46.61
39435;BME280;66825;51.880;-0.518;2023-05-07T01:15:39;100424.97;;;17.93;46.50
39435;BME280;66825;51.880;-0.518;2023-05-07T01:18:06;100427.47;;;17.95;46.74
39435;BME280;66825;51.880;-0.518;2023-05-07T01:20:32;100424.50;;;17.91;46.57
39435;BME280;66825;51.880;-0.518;2023-05-07T01:22:58;100422.25;;;17.93;46.46
39435;BME280;66825;51.880;-0.518;2023-05-07T01:25:25;100426.91;;;17.93;46.66
39435;BME280;66825;51.880;-0.518;2023-05-07T01:27:51;100425.53;;;17.96;46.62
39435;BME280;66825;51.880;-0.518;2023-05-07T01:30:16;100394.00;;;17.75;46.57
39435;BME280;66825;51.880;-0.518;2023-05-07T01:32:48;100422.00;;;17.95;46.85
39435;BME280;66825;51.880;-0.518;2023-05-07T01:35:19;100395.59;;;17.76;46.72
39435;BME280;66825;51.880;-0.518;2023-05-07T01:37:46;100428.53;;;17.94;46.83
39435;BME280;66825;51.880;-0.518;2023-05-07T01:40:13;100427.72;;;17.93;46.62
39435;BME280;66825;51.880;-0.518;2023-05-07T01:42:38;100425.81;;;17.94;46.69
39435;BME280;66825;51.880;-0.518;2023-05-07T01:45:05;100425.81;;;17.94;46.63
39435;BME280;66825;51.880;-0.518;2023-05-07T01:47:31;100426.09;;;17.92;46.71
39435;BME280;66825;51.880;-0.518;2023-05-07T01:49:59;100422.25;;;17.93;46.56
39435;BME280;66825;51.880;-0.518;2023-05-07T01:52:24;100424.97;;;17.93;46.73
39435;BME280;66825;51.880;-0.518;2023-05-07T01:54:50;100429.63;;;17.93;46.73
39435;BME280;66825;51.880;-0.518;2023-05-07T01:57:16;100372.59;;;17.55;46.80
39435;BME280;66825;51.880;-0.518;2023-05-07T01:59:41;100421.47;;;17.93;46.59
39435;BME280;66825;51.880;-0.518;2023-05-07T02:02:07;100433.16;;;17.93;46.62
39435;BME280;66825;51.880;-0.518;2023-05-07T02:04:32;100375.84;;;17.57;46.87
39435;BME280;66825;51.880;-0.518;2023-05-07T02:06:58;100430.75;;;17.92;46.42
39435;BME280;66825;51.880;-0.518;2023-05-07T02:09:23;100432.66;;;17.91;46.92
39435;BME280;66825;51.880;-0.518;2023-05-07T02:11:48;100437.63;;;17.89;46.69
39435;BME280;66825;51.880;-0.518;2023-05-07T02:14:14;100436.78;;;17.89;46.57
39435;BME280;66825;51.880;-0.518;2023-05-07T02:16:40;100432.34;;;17.79;46.45
39435;BME280;66825;51.880;-0.518;2023-05-07T02:19:06;100454.47;;;17.91;46.55
39435;BME280;66825;51.880;-0.518;2023-05-07T02:21:31;100448.50;;;17.89;46.49
39435;BME280;66825;51.880;-0.518;2023-05-07T02:23:57;100448.19;;;17.91;46.38
39435;BME280;66825;51.880;-0.518;2023-05-07T02:26:22;100461.81;;;17.91;46.78
39435;BME280;66825;51.880;-0.518;2023-05-07T02:28:48;100440.72;;;17.83;46.80
39435;BME280;66825;51.880;-0.518;2023-05-07T02:31:13;100427.78;;;17.74;46.65
39435;BME280;66825;51.880;-0.518;2023-05-07T02:33:38;100454.75;;;17.90;46.78
39435;BME280;66825;51.880;-0.518;2023-05-07T02:36:11;100435.19;;;17.74;46.55
39435;BME280;66825;51.880;-0.518;2023-05-07T02:38:37;100465.66;;;17.90;46.71
39435;BME280;66825;51.880;-0.518;2023-05-07T02:41:03;100453.13;;;17.89;46.43
39435;BME280;66825;51.880;-0.518;2023-05-07T02:43:28;100461.31;;;17.89;46.82
39435;BME280;66825;51.880;-0.518;2023-05-07T02:46:05;100401.84;;;17.49;46.61
39435;BME280;66825;51.880;-0.518;2023-05-07T02:48:31;100437.91;;;17.74;46.68
39435;BME280;66825;51.880;-0.518;2023-05-07T02:50:57;100453.63;;;17.77;46.72
39435;BME280;66825;51.880;-0.518;2023-05-07T02:53:23;100469.50;;;17.89;46.72
39435;BME280;66825;51.880;-0.518;2023-05-07T02:55:52;100473.34;;;17.88;46.62
39435;BME280;66825;51.880;-0.518;2023-05-07T02:58:17;100471.41;;;17.88;46.74
39435;BME280;66825;51.880;-0.518;2023-05-07T03:00:43;100468.69;;;17.88;46.51
39435;BME280;66825;51.880;-0.518;2023-05-07T03:03:08;100466.28;;;17.87;46.88
39435;BME280;66825;51.880;-0.518;2023-05-07T03:05:34;100470.63;;;17.88;46.74
39435;BME280;66825;51.880;-0.518;2023-05-07T03:07:59;100472.53;;;17.87;46.60
39435;BME280;66825;51.880;-0.518;2023-05-07T03:10:25;100472.53;;;17.87;46.53
39435;BME280;66825;51.880;-0.518;2023-05-07T03:12:50;100466.28;;;17.87;46.88
39435;BME280;66825;51.880;-0.518;2023-05-07T03:15:15;100470.09;;;17.86;46.67
39435;BME280;66825;51.880;-0.518;2023-05-07T03:17:42;100469.00;;;17.87;46.90
39435;BME280;66825;51.880;-0.518;2023-05-07T03:20:07;100466.16;;;17.78;46.93
39435;BME280;66825;51.880;-0.518;2023-05-07T03:22:34;100473.63;;;17.86;46.33
39435;BME280;66825;51.880;-0.518;2023-05-07T03:25:00;100469.59;;;17.84;46.91
39435;BME280;66825;51.880;-0.518;2023-05-07T03:27:25;100460.50;;;17.74;47.05
39435;BME280;66825;51.880;-0.518;2023-05-07T03:29:51;100454.25;;;17.74;46.49
39435;BME280;66825;51.880;-0.518;2023-05-07T03:32:16;100471.72;;;17.87;46.55
39435;BME280;66825;51.880;-0.518;2023-05-07T03:34:42;100479.09;;;17.86;46.56
39435;BME280;66825;51.880;-0.518;2023-05-07T03:37:07;100402.31;;;17.37;46.59
39435;BME280;66825;51.880;-0.518;2023-05-07T03:39:33;100493.00;;;17.85;46.96
39435;BME280;66825;51.880;-0.518;2023-05-07T03:41:58;100479.38;;;17.85;46.34
39435;BME280;66825;51.880;-0.518;2023-05-07T03:44:24;100488.38;;;17.85;46.49
39435;BME280;66825;51.880;-0.518;2023-05-07T03:46:49;100474.25;;;17.83;46.73
39435;BME280;66825;51.880;-0.518;2023-05-07T03:49:15;100481.31;;;17.84;46.66
39435;BME280;66825;51.880;-0.518;2023-05-07T03:51:41;100484.03;;;17.84;46.78
39435;BME280;66825;51.880;-0.518;2023-05-07T03:54:06;100487.56;;;17.85;46.48
39435;BME280;66825;51.880;-0.518;2023-05-07T03:56:32;100484.03;;;17.84;46.66
39435;BME280;66825;51.880;-0.518;2023-05-07T03:58:57;100490.09;;;17.81;46.84
39435;BME280;66825;51.880;-0.518;2023-05-07T04:01:23;100431.38;;;17.42;46.42
39435;BME280;66825;51.880;-0.518;2023-05-07T04:03:48;100489.88;;;17.77;46.78
39435;BME280;66825;51.880;-0.518;2023-05-07T04:06:16;100502.28;;;17.84;46.65
39435;BME280;66825;51.880;-0.518;2023-05-07T04:08:42;100488.66;;;17.84;46.69
39435;BME280;66825;51.880;-0.518;2023-05-07T04:11:08;100497.66;;;17.84;46.82
39435;BME280;66825;51.880;-0.518;2023-05-07T04:13:33;100490.97;;;17.76;46.47
39435;BME280;66825;51.880;-0.518;2023-05-07T04:16:01;100498.78;;;17.83;46.73
39435;BME280;66825;51.880;-0.518;2023-05-07T04:18:27;100503.41;;;17.83;46.60
39435;BME280;66825;51.880;-0.518;2023-05-07T04:20:53;100497.44;;;17.81;46.77
39435;BME280;66825;51.880;-0.518;2023-05-07T04:23:18;100493.13;;;17.80;46.80
39435;BME280;66825;51.880;-0.518;2023-05-07T04:25:44;100425.81;;;17.33;46.60
39435;BME280;66825;51.880;-0.518;2023-05-07T04:28:10;100508.06;;;17.82;46.74
39435;BME280;66825;51.880;-0.518;2023-05-07T04:30:36;100504.50;;;17.82;46.57
39435;BME280;66825;51.880;-0.518;2023-05-07T04:33:02;100447.13;;;17.45;46.47
39435;BME280;66825;51.880;-0.518;2023-05-07T04:35:27;100513.50;;;17.82;46.79
39435;BME280;66825;51.880;-0.518;2023-05-07T04:37:53;100509.16;;;17.81;46.77
39435;BME280;66825;51.880;-0.518;2023-05-07T04:40:18;100511.56;;;17.83;46.55
39435;BME280;66825;51.880;-0.518;2023-05-07T04:42:44;100460.44;;;17.46;46.49
39435;BME280;66825;51.880;-0.518;2023-05-07T04:45:09;100518.13;;;17.82;46.51
39435;BME280;66825;51.880;-0.518;2023-05-07T04:47:36;100523.88;;;17.80;46.82
39435;BME280;66825;51.880;-0.518;2023-05-07T04:50:01;100466.00;;;17.41;46.78
39435;BME280;66825;51.880;-0.518;2023-05-07T04:52:27;100530.97;;;17.81;46.70
39435;BME280;66825;51.880;-0.518;2023-05-07T04:54:52;100516.41;;;17.72;46.94
39435;BME280;66825;51.880;-0.518;2023-05-07T04:57:18;100528.25;;;17.81;46.79
39435;BME280;66825;51.880;-0.518;2023-05-07T04:59:44;100526.09;;;17.78;46.84
39435;BME280;66825;51.880;-0.518;2023-05-07T05:02:12;100505.28;;;17.68;46.66
39435;BME280;66825;51.880;-0.518;2023-05-07T05:04:37;100525.81;;;17.80;46.80
39435;BME280;66825;51.880;-0.518;2023-05-07T05:07:03;100503.88;;;17.71;46.74
39435;BME280;66825;51.880;-0.518;2023-05-07T05:09:29;100514.91;;;17.80;46.85
39435;BME280;66825;51.880;-0.518;2023-05-07T05:11:55;100525.81;;;17.80;46.49
39435;BME280;66825;51.880;-0.518;2023-05-07T05:14:20;100531.28;;;17.80;46.79
39435;BME280;66825;51.880;-0.518;2023-05-07T05:16:46;100530.44;;;17.79;46.51
39435;BME280;66825;51.880;-0.518;2023-05-07T05:19:11;100538.63;;;17.79;46.84
39435;BME280;66825;51.880;-0.518;2023-05-07T05:21:37;100544.06;;;17.79;46.67
39435;BME280;66825;51.880;-0.518;2023-05-07T05:24:02;100526.50;;;17.71;46.78
39435;BME280;66825;51.880;-0.518;2023-05-07T05:26:28;100540.56;;;17.78;46.58
39435;BME280;66825;51.880;-0.518;2023-05-07T05:28:53;100542.44;;;17.78;46.80
39435;BME280;66825;51.880;-0.518;2023-05-07T05:31:19;100542.44;;;17.78;46.80
39435;BME280;66825;51.880;-0.518;2023-05-07T05:33:44;100545.19;;;17.78;46.49
39435;BME280;66825;51.880;-0.518;2023-05-07T05:36:10;100543.88;;;17.75;46.90
39435;BME280;66825;51.880;-0.518;2023-05-07T05:38:36;100550.41;;;17.74;46.75
39435;BME280;66825;51.880;-0.518;2023-05-07T05:41:02;100556.69;;;17.75;46.66
39435;BME280;66825;51.880;-0.518;2023-05-07T05:43:27;100558.81;;;17.78;46.64
39435;BME280;66825;51.880;-0.518;2023-05-07T05:45:52;100566.19;;;17.77;46.90
39435;BME280;66825;51.880;-0.518;2023-05-07T05:48:18;100563.25;;;17.74;47.04
39435;BME280;66825;51.880;-0.518;2023-05-07T05:50:43;100574.34;;;17.77;46.51
39435;BME280;66825;51.880;-0.518;2023-05-07T05:53:09;100578.97;;;17.77;46.61
39435;BME280;66825;51.880;-0.518;2023-05-07T05:55:34;100579.59;;;17.74;46.55
39435;BME280;66825;51.880;-0.518;2023-05-07T05:58:00;100584.44;;;17.77;46.71
39435;BME280;66825;51.880;-0.518;2023-05-07T06:00:28;100580.09;;;17.76;46.71
39435;BME280;66825;51.880;-0.518;2023-05-07T06:02:55;100587.47;;;17.75;46.81
39435;BME280;66825;51.880;-0.518;2023-05-07T06:05:20;100598.06;;;17.77;46.82
39435;BME280;66825;51.880;-0.518;2023-05-07T06:07:46;100590.50;;;17.74;46.75
39435;BME280;66825;51.880;-0.518;2023-05-07T06:10:11;100536.06;;;17.36;46.68
39435;BME280;66825;51.880;-0.518;2023-05-07T06:12:36;100591.81;;;17.76;46.64
39435;BME280;66825;51.880;-0.518;2023-05-07T06:15:02;100594.63;;;17.71;46.94
39435;BME280;66825;51.880;-0.518;2023-05-07T06:17:28;100610.09;;;17.76;46.79
39435;BME280;66825;51.880;-0.518;2023-05-07T06:19:53;100601.09;;;17.75;46.67
39435;BME280;66825;51.880;-0.518;2023-05-07T06:22:19;100603.81;;;17.75;46.56
39435;BME280;66825;51.880;-0.518;2023-05-07T06:24:44;100609.25;;;17.75;46.81
39435;BME280;66825;51.880;-0.518;2023-05-07T06:27:10;100590.84;;;17.67;46.57
39435;BME280;66825;51.880;-0.518;2023-05-07T06:29:36;100615.81;;;17.74;46.83
39435;BME280;66825;51.880;-0.518;2023-05-07T06:32:11;100617.44;;;17.75;46.66
39435;BME280;66825;51.880;-0.518;2023-05-07T06:34:37;100615.81;;;17.74;46.90
39435;BME280;66825;51.880;-0.518;2023-05-07T06:37:03;100614.19;;;17.73;46.98
39435;BME280;66825;51.880;-0.518;2023-05-07T06:39:28;100606.41;;;17.67;46.85
39435;BME280;66825;51.880;-0.518;2023-05-07T06:41:54;100557.09;;;17.30;46.80
39435;BME280;66825;51.880;-0.518;2023-05-07T06:44:19;100612.88;;;17.71;46.65
39435;BME280;66825;51.880;-0.518;2023-05-07T06:46:45;100625.91;;;17.74;46.78
39435;BME280;66825;51.880;-0.518;2023-05-07T06:49:12;100622.38;;;17.73;46.77
39435;BME280;66825;51.880;-0.518;2023-05-07T06:51:38;100616.13;;;17.73;46.82
39435;BME280;66825;51.880;-0.518;2023-05-07T06:54:03;100617.75;;;17.74;46.78
39435;BME280;66825;51.880;-0.518;2023-05-07T06:56:30;100559.78;;;17.35;46.85
39435;BME280;66825;51.880;-0.518;2023-05-07T06:58:55;100617.75;;;17.74;46.95
39435;BME280;66825;51.880;-0.518;2023-05-07T07:01:21;100621.56;;;17.73;46.83
39435;BME280;66825;51.880;-0.518;2023-05-07T07:03:46;100616.69;;;17.70;46.63
39435;BME280;66825;51.880;-0.518;2023-05-07T07:06:12;100625.09;;;17.73;46.53
39435;BME280;66825;51.880;-0.518;2023-05-07T07:08:37;100605.97;;;17.59;46.69
39435;BME280;66825;51.880;-0.518;2023-05-07T07:11:04;100623.66;;;17.62;46.70
39435;BME280;66825;51.880;-0.518;2023-05-07T07:13:30;100640.66;;;17.73;46.75
39435;BME280;66825;51.880;-0.518;2023-05-07T07:15:56;100583.19;;;17.36;46.94
39435;BME280;66825;51.880;-0.518;2023-05-07T07:18:22;100655.06;;;17.73;46.75
39435;BME280;66825;51.880;-0.518;2023-05-07T07:20:47;100655.06;;;17.73;46.87
39435;BME280;66825;51.880;-0.518;2023-05-07T07:23:13;100655.88;;;17.74;47.04
39435;BME280;66825;51.880;-0.518;2023-05-07T07:25:38;100660.50;;;17.73;46.60
39435;BME280;66825;51.880;-0.518;2023-05-07T07:28:05;100639.03;;;17.72;46.78
39435;BME280;66825;51.880;-0.518;2023-05-07T07:30:30;100641.16;;;17.75;46.77
39435;BME280;66825;51.880;-0.518;2023-05-07T07:32:56;100641.44;;;17.73;46.79
39435;BME280;66825;51.880;-0.518;2023-05-07T07:35:27;100626.81;;;17.69;47.15
39435;BME280;66825;51.880;-0.518;2023-05-07T07:37:53;100657.22;;;17.76;46.87
39435;BME280;66825;51.880;-0.518;2023-05-07T07:40:18;100624.22;;;17.59;46.86
39435;BME280;66825;51.880;-0.518;2023-05-07T07:42:44;100654.47;;;17.76;46.94
39435;BME280;66825;51.880;-0.518;2023-05-07T07:45:09;100588.31;;;17.38;46.61
39435;BME280;66825;51.880;-0.518;2023-05-07T07:47:35;100640.44;;;17.69;46.85
39435;BME280;66825;51.880;-0.518;2023-05-07T07:50:00;100656.09;;;17.77;46.96
39435;BME280;66825;51.880;-0.518;2023-05-07T07:52:26;100650.34;;;17.79;46.76
39435;BME280;66825;51.880;-0.518;2023-05-07T07:54:51;100653.91;;;17.80;46.89
39435;BME280;66825;51.880;-0.518;2023-05-07T07:57:17;100662.88;;;17.80;46.55
39435;BME280;66825;51.880;-0.518;2023-05-07T07:59:42;100587.59;;;17.32;46.68
39435;BME280;66825;51.880;-0.518;2023-05-07T08:02:08;100646.66;;;17.70;46.99
39435;BME280;66825;51.880;-0.518;2023-05-07T08:04:34;100668.84;;;17.82;46.71
39435;BME280;66825;51.880;-0.518;2023-05-07T08:07:00;100660.66;;;17.82;46.92
39435;BME280;66825;51.880;-0.518;2023-05-07T08:09:26;100672.38;;;17.83;46.75
39435;BME280;66825;51.880;-0.518;2023-05-07T08:11:51;100668.53;;;17.84;46.62
39435;BME280;66825;51.880;-0.518;2023-05-07T08:14:17;100666.69;;;17.79;46.59
39435;BME280;66825;51.880;-0.518;2023-05-07T08:16:42;100684.59;;;17.85;46.62
39435;BME280;66825;51.880;-0.518;2023-05-07T08:19:08;100679.13;;;17.85;46.49
39435;BME280;66825;51.880;-0.518;2023-05-07T08:21:34;100678.91;;;17.82;46.84
39435;BME280;66825;51.880;-0.518;2023-05-07T08:23:59;100690.56;;;17.87;46.49
39435;BME280;66825;51.880;-0.518;2023-05-07T08:26:25;100685.94;;;17.88;46.82
39435;BME280;66825;51.880;-0.518;2023-05-07T08:28:50;100683.22;;;17.88;46.82
39435;BME280;66825;51.880;-0.518;2023-05-07T08:31:16;100693.81;;;17.89;46.69
39435;BME280;66825;51.880;-0.518;2023-05-07T08:33:41;100682.09;;;17.89;46.46
39435;BME280;66825;51.880;-0.518;2023-05-07T08:36:07;100689.16;;;17.90;46.61
39435;BME280;66825;51.880;-0.518;2023-05-07T08:38:32;100691.88;;;17.90;46.34
39435;BME280;66825;51.880;-0.518;2023-05-07T08:40:58;100698.97;;;17.91;46.63
39435;BME280;66825;51.880;-0.518;2023-05-07T08:43:26;100704.41;;;17.91;46.52
39435;BME280;66825;51.880;-0.518;2023-05-07T08:45:53;100704.09;;;17.92;46.94
39435;BME280;66825;51.880;-0.518;2023-05-07T08:48:22;100704.09;;;17.92;46.95
39435;BME280;66825;51.880;-0.518;2023-05-07T08:50:49;100706.84;;;17.92;46.68
39435;BME280;66825;51.880;-0.518;2023-05-07T08:53:16;100694.59;;;17.90;46.64
39435;BME280;66825;51.880;-0.518;2023-05-07T08:55:42;100655.31;;;17.58;46.70
39435;BME280;66825;51.880;-0.518;2023-05-07T08:58:07;100714.72;;;17.94;46.35
39435;BME280;66825;51.880;-0.518;2023-05-07T09:00:33;100661.00;;;17.61;46.77
39435;BME280;66825;51.880;-0.518;2023-05-07T09:03:00;100664.59;;;17.57;46.60
39435;BME280;66825;51.880;-0.518;2023-05-07T09:05:26;100728.88;;;17.96;46.55
39435;BME280;66825;51.880;-0.518;2023-05-07T09:07:51;100717.72;;;17.98;46.45
39435;BME280;66825;51.880;-0.518;2023-05-07T09:10:16;100717.72;;;17.98;46.63
39435;BME280;66825;51.880;-0.518;2023-05-07T09:12:42;100722.06;;;17.99;46.84
39435;BME280;66825;51.880;-0.518;2023-05-07T09:15:08;100721.22;;;17.98;46.74
39435;BME280;66825;51.880;-0.518;2023-05-07T09:17:33;100727.50;;;17.99;46.74
39435;BME280;66825;51.880;-0.518;2023-05-07T09:20:03;100724.78;;;17.99;46.50
39435;BME280;66825;51.880;-0.518;2023-05-07T09:22:33;100708.53;;;17.88;46.63
39435;BME280;66825;51.880;-0.518;2023-05-07T09:24:59;100723.38;;;18.01;46.63
39435;BME280;66825;51.880;-0.518;2023-05-07T09:27:25;100659.38;;;17.60;46.42
39435;BME280;66825;51.880;-0.518;2023-05-07T09:29:51;100713.09;;;17.93;46.64
39435;BME280;66825;51.880;-0.518;2023-05-07T09:32:17;100735.91;;;18.02;46.61
39435;BME280;66825;51.880;-0.518;2023-05-07T09:34:42;100727.22;;;18.00;46.63
39435;BME280;66825;51.880;-0.518;2023-05-07T09:37:08;100728.22;;;18.04;46.75
39435;BME280;66825;51.880;-0.518;2023-05-07T09:39:46;100732.88;;;18.04;46.51
39435;BME280;66825;51.880;-0.518;2023-05-07T09:42:12;100727.72;;;18.02;46.87
39435;BME280;66825;51.880;-0.518;2023-05-07T09:44:40;100735.59;;;18.04;46.45
39435;BME280;66825;51.880;-0.518;2023-05-07T09:47:06;100748.13;;;18.05;46.76
39435;BME280;66825;51.880;-0.518;2023-05-07T09:49:36;100746.22;;;18.05;46.82
39435;BME280;66825;51.880;-0.518;2023-05-07T09:52:04;100750.56;;;18.06;46.42
39435;BME280;66825;51.880;-0.518;2023-05-07T09:54:32;100747.84;;;18.06;46.43
39435;BME280;66825;51.880;-0.518;2023-05-07T09:56:59;100751.34;;;18.07;46.69
39435;BME280;66825;51.880;-0.518;2023-05-07T09:59:27;100693.28;;;17.68;46.61
39435;BME280;66825;51.880;-0.518;2023-05-07T10:01:57;100746.72;;;18.07;46.41
39435;BME280;66825;51.880;-0.518;2023-05-07T10:04:25;100762.78;;;18.09;46.58
39435;BME280;66825;51.880;-0.518;2023-05-07T10:06:52;100764.41;;;18.10;46.45
39435;BME280;66825;51.880;-0.518;2023-05-07T10:09:19;100762.78;;;18.09;46.27
39435;BME280;66825;51.880;-0.518;2023-05-07T10:11:46;100767.94;;;18.10;46.54
39435;BME280;66825;51.880;-0.518;2023-05-07T10:14:14;100760.06;;;18.09;46.68
39435;BME280;66825;51.880;-0.518;2023-05-07T10:16:40;100756.38;;;18.00;46.68
39435;BME280;66825;51.880;-0.518;2023-05-07T10:19:07;100768.75;;;18.11;46.54
39435;BME280;66825;51.880;-0.518;2023-05-07T10:21:36;100779.34;;;18.13;46.46
39435;BME280;66825;51.880;-0.518;2023-05-07T10:24:31;100778.25;;;18.14;46.59
39435;BME280;66825;51.880;-0.518;2023-05-07T10:26:58;100777.47;;;18.13;46.70
39435;BME280;66825;51.880;-0.518;2023-05-07T10:29:36;100726.44;;;17.75;46.50
39435;BME280;66825;51.880;-0.518;2023-05-07T10:32:13;100794.63;;;18.14;46.63
39435;BME280;66825;51.880;-0.518;2023-05-07T10:34:42;100783.56;;;18.05;46.37
39435;BME280;66825;51.880;-0.518;2023-05-07T10:37:09;100798.97;;;18.15;46.56
39435;BME280;66825;51.880;-0.518;2023-05-07T10:39:35;100805.22;;;18.15;46.66
39435;BME280;66825;51.880;-0.518;2023-05-07T10:42:08;100799.78;;;18.15;46.41
39435;BME280;66825;51.880;-0.518;2023-05-07T10:44:34;100801.41;;;18.16;46.44
39435;BME280;66825;51.880;-0.518;2023-05-07T10:47:07;100796.78;;;18.17;46.54
39435;BME280;66825;51.880;-0.518;2023-05-07T10:52:21;100806.53;;;18.18;46.60
39435;BME280;66825;51.880;-0.518;2023-05-07T10:55:29;100809.28;;;18.18;46.54
39435;BME280;66825;51.880;-0.518;2023-05-07T10:57:55;100785.56;;;17.99;46.49
39435;BME280;66825;51.880;-0.518;2023-05-07T11:05:27;100791.53;;;18.01;46.80
39435;BME280;66825;51.880;-0.518;2023-05-07T11:08:02;100826.16;;;18.20;46.84
39435;BME280;66825;51.880;-0.518;2023-05-07T11:10:51;100818.59;;;18.17;46.41
39435;BME280;66825;51.880;-0.518;2023-05-07T11:13:18;100830.50;;;18.21;46.63
39435;BME280;66825;51.880;-0.518;2023-05-07T11:15:45;100829.72;;;18.20;46.69
39435;BME280;66825;51.880;-0.518;2023-05-07T11:18:16;100832.13;;;18.22;46.75
39435;BME280;66825;51.880;-0.518;2023-05-07T11:20:50;100840.31;;;18.22;46.87
39435;BME280;66825;51.880;-0.518;2023-05-07T11:26:07;100823.72;;;18.18;46.67
39435;BME280;66825;51.880;-0.518;2023-05-07T11:28:43;100818.38;;;18.13;46.58
39435;BME280;66825;51.880;-0.518;2023-05-07T11:31:09;100765.34;;;17.81;46.54
39435;BME280;66825;51.880;-0.518;2023-05-07T11:33:37;100829.09;;;18.23;46.70
39435;BME280;66825;51.880;-0.518;2023-05-07T11:36:03;100829.94;;;18.24;46.54
39435;BME280;66825;51.880;-0.518;2023-05-07T11:38:30;100766.34;;;17.85;46.80
39435;BME280;66825;51.880;-0.518;2023-05-07T11:40:57;100835.38;;;18.24;46.57
39435;BME280;66825;51.880;-0.518;2023-05-07T11:43:24;100819.47;;;18.12;46.67
39435;BME280;66825;51.880;-0.518;2023-05-07T11:45:49;100831.25;;;18.27;46.55
39435;BME280;66825;51.880;-0.518;2023-05-07T11:48:15;100833.97;;;18.27;46.65
39435;BME280;66825;51.880;-0.518;2023-05-07T11:51:03;100832.66;;;18.24;46.94
39435;BME280;66825;51.880;-0.518;2023-05-07T11:53:37;100842.97;;;18.27;46.72
39435;BME280;66825;51.880;-0.518;2023-05-07T11:56:16;100822.41;;;18.16;46.71
39435;BME280;66825;51.880;-0.518;2023-05-07T11:58:43;100848.94;;;18.29;46.72
39435;BME280;66825;51.880;-0.518;2023-05-07T12:01:11;100840.75;;;18.29;46.69
39435;BME280;66825;51.880;-0.518;2023-05-07T12:03:37;100840.75;;;18.29;46.70
39435;BME280;66825;51.880;-0.518;2023-05-07T12:06:05;100839.13;;;18.28;46.69
39435;BME280;66825;51.880;-0.518;2023-05-07T12:08:32;100844.28;;;18.30;46.84
39435;BME280;66825;51.880;-0.518;2023-05-07T12:10:57;100844.81;;;18.32;46.93
39435;BME280;66825;51.880;-0.518;2023-05-07T12:13:25;100839.66;;;18.30;47.03
39435;BME280;66825;51.880;-0.518;2023-05-07T12:15:51;100833.09;;;18.31;46.74
39435;BME280;66825;51.880;-0.518;2023-05-07T12:18:17;100839.66;;;18.30;46.72
39435;BME280;66825;51.880;-0.518;2023-05-07T12:20:43;100821.75;;;18.24;46.69
39435;BME280;66825;51.880;-0.518;2023-05-07T12:23:10;100839.03;;;18.33;46.50
39435;BME280;66825;51.880;-0.518;2023-05-07T12:25:38;100836.09;;;18.30;46.46
39435;BME280;66825;51.880;-0.518;2023-05-07T12:28:04;100839.88;;;18.34;46.54
39435;BME280;66825;51.880;-0.518;2023-05-07T12:30:36;100833.31;;;18.35;46.68
39435;BME280;66825;51.880;-0.518;2023-05-07T12:33:02;100841.50;;;18.35;46.76
39435;BME280;66825;51.880;-0.518;2023-05-07T12:35:32;100847.75;;;18.35;46.52
39435;BME280;66825;51.880;-0.518;2023-05-07T12:37:58;100850.47;;;18.35;46.66
39435;BME280;66825;51.880;-0.518;2023-05-07T12:40:35;100854.84;;;18.36;46.73
39435;BME280;66825;51.880;-0.518;2023-05-07T12:43:01;100852.09;;;18.36;46.82
39435;BME280;66825;51.880;-0.518;2023-05-07T12:45:26;100851.00;;;18.37;46.75
39435;BME280;66825;51.880;-0.518;2023-05-07T12:47:52;100857.25;;;18.38;46.90